Pointe Aux Barques, Michigan
Current Conditions -  °F | °C
As of 7:36 PM on Monday 24 Nov 2014 (Local Time) from KBAX Reporting Station
Overcast Overcast  
Wind Chill: 24°   Ceiling: 1900
Heat Index: 37°   Visibility: 10mi
Dew Point: 32°   Wind: 29mph
Humidity: 84%   Direction: 240°WSW
Pressure: 29.43"   Gusts: 40mph
Location:  44.0077°N, 82.9857°W
Report Text: KBAX 250036Z AUTO 24025G35KT 10SM OVC019 03/00 A2943 RMK AO2 T00260001
Loading
Personal Weather Stations






























Interactive Weather Map New forecast layout! Learn more

10-Day Weather Forecast

Advertisements
Track Severe Weather on mobile